Time;durP1;ratioP1;P1;durP2;ratioP2;P2;SDS_P1;SDS_P2;PMS_P1;PMS_P2;Temp;Humidity;BMP_temperature;BMP_pressure;BME280_temperature;BME280_humidity;BME280_pressure;Samples;Min_cycle;Max_cycle;Signal;HPM_P1;HPM_P2
2022/04/29 00:01:48;;;;;;;14.20;9.13;;;;;;;12.85;41.81;98923.97;10057916;29;20042;-82
2022/04/29 00:07:10;;;;;;;14.82;8.40;;;;;;;12.68;42.09;98926.81;10045108;29;20114;-82
2022/04/29 00:12:31;;;;;;;12.07;8.43;;;;;;;12.57;42.24;98925.28;10070356;29;20078;-81
2022/04/29 00:17:51;;;;;;;12.18;8.00;;;;;;;12.46;42.67;98920.22;10069464;29;20038;-82
2022/04/29 00:23:12;;;;;;;12.20;8.50;;;;;;;12.32;42.72;98926.16;10056443;29;20049;-82
2022/04/29 00:28:33;;;;;;;13.35;8.70;;;;;;;12.25;42.78;98926.97;10068040;29;20106;-81
2022/04/29 00:33:54;;;;;;;14.38;8.35;;;;;;;12.15;42.91;98914.97;10055552;29;20042;-82
2022/04/29 00:39:15;;;;;;;12.55;7.53;;;;;;;12.10;43.39;98913.19;10054943;29;20046;-82
2022/04/29 00:44:38;;;;;;;16.40;8.25;;;;;;;12.02;43.21;98912.53;10041559;29;20070;-81
2022/04/29 00:49:59;;;;;;;11.13;7.22;;;;;;;11.96;43.57;98917.63;10041888;29;20042;-81
2022/04/29 00:55:20;;;;;;;11.65;7.18;;;;;;;11.89;43.54;98918.47;10041132;29;20045;-80
2022/04/29 01:00:41;;;;;;;13.20;7.40;;;;;;;11.85;43.91;98912.53;10068518;29;20050;-78
2022/04/29 01:06:03;;;;;;;10.00;7.47;;;;;;;11.82;44.06;98902.50;10029515;29;20049;-82
2022/04/29 01:11:25;;;;;;;10.55;7.57;;;;;;;11.73;43.95;98901.81;10054463;29;20049;-82
2022/04/29 01:16:46;;;;;;;10.05;7.20;;;;;;;11.63;44.22;98903.78;10025600;29;20048;-82
2022/04/29 01:22:07;;;;;;;11.27;7.90;;;;;;;11.57;44.17;98899.75;10017857;29;20048;-82
2022/04/29 01:27:28;;;;;;;15.13;7.60;;;;;;;11.51;44.69;98891.63;10001875;29;20046;-82
2022/04/29 01:32:50;;;;;;;15.48;8.27;;;;;;;11.50;44.58;98892.19;10043501;29;20054;-82
2022/04/29 01:38:10;;;;;;;10.20;7.78;;;;;;;11.44;44.73;98886.84;10038768;29;20061;-82
2022/04/29 01:43:33;;;;;;;12.13;8.30;;;;;;;11.39;45.09;98882.97;10023463;29;20050;-82
2022/04/29 01:48:54;;;;;;;10.82;7.30;;;;;;;11.33;45.17;98881.72;10037875;29;20190;-83
2022/04/29 01:54:24;;;;;;;15.98;7.97;;;;;;;11.23;45.18;98881.63;10033441;29;20066;-83
2022/04/29 01:59:44;;;;;;;11.25;7.88;;;;;;;11.17;45.39;98879.06;10006571;29;20050;-81
2022/04/29 02:05:34;;;;;;;11.32;7.50;;;;;;;11.12;45.64;98873.72;10031759;29;20045;-81
2022/04/29 02:10:55;;;;;;;11.57;8.02;;;;;;;11.03;45.92;98871.56;10019327;29;20034;-82
2022/04/29 02:16:20;;;;;;;14.13;7.97;;;;;;;10.99;45.99;98871.22;10022467;29;20046;-84
2022/04/29 02:21:41;;;;;;;13.07;8.57;;;;;;;10.97;45.93;98868.25;10034362;29;20050;-83
2022/04/29 02:27:04;;;;;;;13.27;8.40;;;;;;;10.91;45.95;98868.50;10004328;29;20058;-82
2022/04/29 02:32:25;;;;;;;12.25;8.55;;;;;;;10.81;46.74;98870.44;9993296;29;20046;-83
2022/04/29 02:37:47;;;;;;;14.23;8.48;;;;;;;10.70;46.89;98868.09;10031341;29;20056;-83
2022/04/29 02:43:08;;;;;;;13.05;8.02;;;;;;;10.54;47.18;98868.22;10017534;29;20069;-83
2022/04/29 02:48:29;;;;;;;14.57;9.82;;;;;;;10.43;47.57;98868.66;9997232;29;20050;-82
2022/04/29 02:53:53;;;;;;;14.73;9.50;;;;;;;10.25;47.89;98856.66;10014265;29;20114;-82
2022/04/29 02:59:15;;;;;;;11.57;8.30;;;;;;;10.18;48.15;98859.47;10023491;29;20034;-82
2022/04/29 03:04:36;;;;;;;14.73;8.70;;;;;;;10.14;48.08;98856.31;10009078;29;20047;-81
2022/04/29 03:09:57;;;;;;;11.05;8.20;;;;;;;10.04;48.58;98840.19;10009449;29;20046;-83
2022/04/29 03:15:18;;;;;;;11.73;8.48;;;;;;;9.99;48.65;98855.06;9996808;29;20080;-83
2022/04/29 03:20:53;;;;;;;12.02;8.02;;;;;;;9.83;48.89;98848.06;10004471;29;20046;-82
2022/04/29 03:26:15;;;;;;;11.25;8.55;;;;;;;9.68;49.20;98859.28;10004546;29;20038;-84
2022/04/29 03:31:37;;;;;;;12.60;8.40;;;;;;;9.55;49.52;98848.34;10004017;29;20072;-82
2022/04/29 03:37:21;;;;;;;11.18;8.25;;;;;;;9.53;49.88;98854.50;10003037;29;20525;-81
2022/04/29 03:42:42;;;;;;;13.13;9.23;;;;;;;9.55;50.05;98851.88;10002722;29;20490;-82
2022/04/29 03:48:04;;;;;;;12.40;8.82;;;;;;;9.62;49.94;98853.91;10003337;29;20057;-83
2022/04/29 03:53:30;;;;;;;12.15;8.73;;;;;;;9.63;50.07;98852.59;10015896;29;20030;-82
2022/04/29 03:58:56;;;;;;;13.63;8.13;;;;;;;9.63;50.12;98844.25;10020823;29;20061;-83
2022/04/29 04:04:17;;;;;;;11.35;8.55;;;;;;;9.61;50.68;98849.66;10035973;29;20079;-81
2022/04/29 04:09:39;;;;;;;15.95;9.70;;;;;;;9.67;50.38;98852.25;10039473;29;20054;-82
2022/04/29 04:15:03;;;;;;;13.05;9.25;;;;;;;9.79;50.42;98855.34;10023179;29;20048;-82
2022/04/29 04:20:30;;;;;;;14.85;8.70;;;;;;;9.87;50.52;98856.81;10010298;29;20034;-83
2022/04/29 04:25:57;;;;;;;11.45;8.65;;;;;;;10.06;50.54;98869.56;10024046;29;20046;-83
2022/04/29 04:31:21;;;;;;;15.10;9.68;;;;;;;10.21;50.46;98870.22;10011760;29;20053;-83
2022/04/29 04:36:52;;;;;;;14.48;9.57;;;;;;;10.41;50.49;98884.47;10021907;29;20130;-83
2022/04/29 04:42:15;;;;;;;16.52;9.30;;;;;;;10.64;50.32;98892.72;10024668;29;20063;-84
2022/04/29 04:47:42;;;;;;;13.68;9.13;;;;;;;10.86;50.23;98894.59;10010492;29;20038;-82
2022/04/29 04:53:24;;;;;;;13.30;9.00;;;;;;;11.18;50.03;98896.56;10021306;29;20050;-83
2022/04/29 04:58:45;;;;;;;17.52;9.40;;;;;;;11.53;49.79;98902.97;10023206;29;20078;-82
2022/04/29 05:04:08;;;;;;;14.10;9.43;;;;;;;12.01;49.53;98911.06;10029416;29;20140;-82
2022/04/29 05:09:47;;;;;;;18.38;10.07;;;;;;;12.46;48.70;98909.00;10025538;29;20026;-84
2022/04/29 05:15:09;;;;;;;14.43;8.63;;;;;;;13.12;48.41;98919.06;10019388;29;20045;-82
2022/04/29 05:20:30;;;;;;;12.63;9.23;;;;;;;14.12;47.69;98906.06;10034736;29;20053;-83
2022/04/29 05:25:52;;;;;;;12.30;8.63;;;;;;;16.63;45.75;98920.78;10055272;29;20057;-82
2022/04/29 05:31:50;;;;;;;10.38;8.68;;;;;;;25.62;38.28;98923.41;10034646;29;20064;-85
2022/04/29 05:37:31;;;;;;;14.20;7.75;;;;;;;31.14;31.17;98929.22;10021316;29;20046;-84
2022/04/29 05:43:00;;;;;;;12.50;7.13;;;;;;;34.17;26.09;98928.72;10020238;29;20046;-82
2022/04/29 05:48:24;;;;;;;10.98;6.63;;;;;;;36.09;22.58;98933.66;9996078;29;20687;-83
2022/04/29 05:53:45;;;;;;;8.50;6.35;;;;;;;37.71;19.61;98932.00;10020660;29;20448;-82
2022/04/29 05:59:05;;;;;;;8.88;5.15;;;;;;;39.06;16.30;98934.41;9995288;29;20046;-82
2022/04/29 06:04:45;;;;;;;9.02;5.40;;;;;;;39.95;13.59;98940.47;9999715;29;20050;-85
2022/04/29 06:10:07;;;;;;;8.73;5.20;;;;;;;38.18;12.43;98938.91;9994784;29;20050;-86
2022/04/29 06:15:31;;;;;;;6.15;4.88;;;;;;;33.38;14.58;98937.88;10007087;29;20049;-85
2022/04/29 06:21:13;;;;;;;6.82;4.95;;;;;;;31.10;16.48;98935.69;10020290;29;20050;-84
2022/04/29 06:26:56;;;;;;;8.45;4.80;;;;;;;30.53;16.79;98940.38;10010527;29;20050;-85
2022/04/29 06:32:17;;;;;;;;;;;;;;;29.16;16.84;98921.81;9995267;29;20077;-84
2022/04/29 06:37:56;;;;;;;8.05;4.85;;;;;;;28.73;17.92;98932.69;9999413;29;19924;-85
2022/04/29 06:43:38;;;;;;;7.60;5.35;;;;;;;29.29;17.62;98940.63;9999923;29;20057;-84
2022/04/29 06:49:18;;;;;;;6.83;4.23;;;;;;;28.92;17.89;98938.72;10005856;29;20042;-84
2022/04/29 06:54:42;;;;;;;8.60;4.80;;;;;;;27.79;18.30;98936.19;9981187;29;20306;-82
2022/04/29 07:00:08;;;;;;;9.57;4.95;;;;;;;25.56;19.52;98937.53;9993870;29;20102;-83
2022/04/29 07:05:31;;;;;;;6.45;5.50;;;;;;;25.20;20.95;98940.84;10000271;29;20049;-82
2022/04/29 07:10:57;;;;;;;9.77;6.28;;;;;;;25.71;21.26;98950.13;9994205;29;20038;-84
2022/04/29 07:16:42;;;;;;;8.90;6.20;;;;;;;27.12;20.56;98940.63;9996748;29;20379;-84
2022/04/29 07:22:11;;;;;;;8.13;5.95;;;;;;;27.55;20.48;98936.47;9994477;29;20057;-84
2022/04/29 07:27:41;;;;;;;5.85;4.80;;;;;;;29.16;19.81;98932.56;10005849;29;20482;-84
2022/04/29 07:33:03;;;;;;;8.80;5.22;;;;;;;29.68;18.89;98938.22;9993671;29;20471;-84
2022/04/29 07:44:23;;;;;;;9.48;5.05;;;;;;;31.40;17.65;98926.44;9979763;29;20065;-84
2022/04/29 07:49:47;;;;;;;9.82;4.35;;;;;;;30.01;17.07;98927.00;9993323;29;20089;-87
2022/04/29 07:55:12;;;;;;;8.05;3.92;;;;;;;28.66;17.58;98922.56;9981051;29;20046;-87
2022/04/29 08:00:34;;;;;;;7.55;3.92;;;;;;;28.89;18.45;98925.75;9992793;29;20053;-86
2022/04/29 08:06:16;;;;;;;6.40;3.70;;;;;;;29.43;18.16;98933.59;10023423;29;20447;-86
2022/04/29 08:11:38;;;;;;;5.05;3.78;;;;;;;30.43;17.33;98918.72;9999073;29;20445;-86
2022/04/29 08:17:17;;;;;;;4.68;3.17;;;;;;;38.41;14.30;98915.75;10014071;29;20405;-85
2022/04/29 08:22:53;;;;;;;5.55;3.25;;;;;;;44.56;9.59;98918.38;10001156;29;20050;-84
2022/04/29 08:28:16;;;;;;;3.70;2.50;;;;;;;47.24;6.26;98923.59;9998579;29;20053;-86
2022/04/29 08:33:38;;;;;;;5.97;2.47;;;;;;;47.78;5.27;98918.63;10010815;29;20046;-84
2022/04/29 08:39:07;;;;;;;4.38;2.10;;;;;;;49.34;4.95;98914.63;9987906;29;20046;-82
2022/04/29 08:44:30;;;;;;;8.82;2.03;;;;;;;50.09;4.22;98912.72;9997798;29;20110;-86
2022/04/29 08:50:21;;;;;;;6.35;2.03;;;;;;;50.51;3.24;98896.16;10003495;29;20050;-85
2022/04/29 09:01:43;;;;;;;6.03;1.92;;;;;;;48.99;3.77;98888.16;10001175;29;20058;-85
2022/04/29 09:07:09;;;;;;;4.45;1.95;;;;;;;48.86;3.86;98892.81;10010349;29;20098;-83
2022/04/29 09:12:34;;;;;;;4.68;1.70;;;;;;;47.31;4.22;98889.16;10009675;29;20053;-84
2022/04/29 09:17:55;;;;;;;6.40;1.85;;;;;;;49.31;4.37;98884.38;9996585;29;20115;-86
2022/04/29 09:23:29;;;;;;;5.38;1.40;;;;;;;49.67;2.82;98880.97;9998327;29;20046;-86
2022/04/29 09:29:17;;;;;;;3.13;1.30;;;;;;;47.64;3.01;98881.13;10011807;29;20089;-85
2022/04/29 09:34:59;;;;;;;5.85;2.08;;;;;;;38.91;6.98;98870.63;10001467;29;20076;-84
2022/04/29 09:40:20;;;;;;;5.28;2.53;;;;;;;33.28;9.67;98864.13;9996165;29;20053;-84
2022/04/29 09:45:41;;;;;;;7.10;4.40;;;;;;;30.78;11.87;98869.94;9993424;29;20524;-84
2022/04/29 09:51:04;;;;;;;5.07;2.75;;;;;;;31.23;11.18;98859.34;9995530;29;20049;-85
2022/04/29 09:56:24;;;;;;;5.05;2.88;;;;;;;32.74;11.57;98853.53;10020942;29;20050;-85
2022/04/29 10:01:45;;;;;;;4.72;2.67;;;;;;;34.48;11.77;98850.94;10020656;29;20085;-85
2022/04/29 10:07:08;;;;;;;8.30;2.58;;;;;;;38.01;9.57;98848.25;9994997;29;20050;-84
2022/04/29 10:12:30;;;;;;;3.38;2.40;;;;;;;39.26;8.56;98843.34;10007634;29;20046;-83
2022/04/29 10:24:25;;;;;;;6.05;2.63;;;;;;;37.35;8.71;98825.09;10012170;29;20053;-84
2022/04/29 10:29:46;;;;;;;3.83;2.20;;;;;;;38.70;9.12;98826.00;10019570;29;20061;-85
2022/04/29 10:35:39;;;;;;;8.73;2.50;;;;;;;37.30;9.12;98832.50;9994184;29;20506;-82
2022/04/29 10:41:19;;;;;;;5.18;2.03;;;;;;;38.70;8.86;98820.19;10006781;29;20431;-83
2022/04/29 10:46:41;;;;;;;5.88;2.63;;;;;;;37.46;8.67;98815.38;9993710;29;20048;-84
2022/04/29 10:52:27;;;;;;;4.68;2.33;;;;;;;34.91;9.76;98807.66;10006685;29;20490;-84
2022/04/29 10:58:19;;;;;;;5.07;2.53;;;;;;;33.07;10.35;98807.88;10010115;29;20508;-84
2022/04/29 11:03:43;;;;;;;4.35;3.10;;;;;;;32.30;10.91;98803.09;9993615;29;20418;-83
2022/04/29 11:09:28;;;;;;;6.55;2.55;;;;;;;31.80;12.37;98804.59;9971173;29;20125;-83
2022/04/29 11:15:11;;;;;;;5.78;3.00;;;;;;;30.64;12.19;98794.97;9964684;29;20042;-83
2022/04/29 11:20:59;;;;;;;7.68;3.03;;;;;;;30.31;13.12;98803.47;9996076;29;20054;-83
2022/04/29 11:26:21;;;;;;;5.95;3.10;;;;;;;30.17;13.06;98794.72;9974867;29;20129;-83
2022/04/29 11:31:46;;;;;;;6.85;3.20;;;;;;;29.81;12.90;98795.16;9961443;29;20065;-83
2022/04/29 11:37:08;;;;;;;7.00;3.38;;;;;;;29.20;13.55;98786.72;9975206;29;20054;-83
2022/04/29 11:42:30;;;;;;;5.05;3.25;;;;;;;28.45;14.01;98780.09;9993922;29;20105;-81
2022/04/29 11:48:06;;;;;;;7.90;3.67;;;;;;;27.85;15.16;98774.94;10012324;29;20102;-81
2022/04/29 11:53:29;;;;;;;5.57;3.15;;;;;;;27.58;15.08;98765.88;10013628;29;20058;-80
2022/04/29 11:58:55;;;;;;;6.57;3.90;;;;;;;28.12;15.37;98762.44;9981285;29;20042;-84
2022/04/29 12:04:16;;;;;;;7.22;3.60;;;;;;;27.90;15.37;98754.22;9987536;29;20474;-82
2022/04/29 12:09:38;;;;;;;6.70;3.60;;;;;;;27.44;15.64;98748.47;9987739;29;20043;-83
2022/04/29 12:14:59;;;;;;;17.57;5.70;;;;;;;26.79;15.86;98738.69;9966101;29;20145;-82
2022/04/29 12:20:20;;;;;;;6.32;3.30;;;;;;;26.28;16.76;98737.66;9986379;29;20046;-83
2022/04/29 12:25:45;;;;;;;15.80;4.77;;;;;;;25.89;16.67;98736.09;9975943;29;20438;-84
2022/04/29 12:36:58;;;;;;;7.88;3.70;;;;;;;25.03;17.49;98722.59;9994932;29;20056;-83
2022/04/29 12:42:27;;;;;;;7.25;3.65;;;;;;;24.11;18.34;98707.16;9964593;29;20482;-83
2022/04/29 12:48:02;;;;;;;7.28;3.22;;;;;;;24.03;18.65;98707.66;9964721;29;20053;-83
2022/04/29 12:53:30;;;;;;;7.70;4.22;;;;;;;24.03;18.45;98704.06;9979994;29;20078;-83
2022/04/29 12:58:51;;;;;;;9.10;3.25;;;;;;;24.08;18.80;98697.81;9975178;29;20038;-83
2022/04/29 13:04:12;;;;;;;7.25;3.55;;;;;;;24.59;18.58;98687.84;9989415;29;20106;-84
2022/04/29 13:09:56;;;;;;;8.10;3.00;;;;;;;24.91;18.41;98684.41;9992232;29;20074;-83
2022/04/29 13:15:17;;;;;;;5.93;3.10;;;;;;;24.92;17.75;98677.28;9988662;29;20038;-84
2022/04/29 13:20:42;;;;;;;5.13;3.22;;;;;;;25.02;18.00;98681.16;9989170;29;20046;-83
2022/04/29 13:26:13;;;;;;;7.32;2.88;;;;;;;25.32;17.75;98666.88;9963681;29;20508;-84
2022/04/29 13:31:34;;;;;;;6.43;3.00;;;;;;;25.21;17.42;98665.19;9966553;29;20058;-83
2022/04/29 13:36:55;;;;;;;5.78;2.55;;;;;;;25.32;17.13;98655.47;9959356;29;20575;-84
2022/04/29 13:42:18;;;;;;;6.43;3.07;;;;;;;25.47;17.10;98659.34;9975097;29;20073;-84
2022/04/29 13:47:40;;;;;;;5.10;2.55;;;;;;;25.68;16.97;98661.28;9994214;29;20070;-83
2022/04/29 13:53:07;;;;;;;5.95;3.40;;;;;;;25.24;17.22;98652.41;9957008;29;20058;-83
2022/04/29 13:58:28;;;;;;;4.75;2.47;;;;;;;24.88;17.19;98655.06;9932291;29;20102;-83
2022/04/29 14:03:50;;;;;;;8.70;2.30;;;;;;;24.36;17.54;98643.00;9955591;29;20070;-83
2022/04/29 14:09:12;;;;;;;5.90;2.55;;;;;;;23.86;18.11;98651.53;9967401;29;20042;-77
2022/04/29 14:14:33;;;;;;;6.50;2.67;;;;;;;23.73;18.34;98632.63;10002244;29;20401;-77
2022/04/29 14:19:54;;;;;;;4.13;2.47;;;;;;;23.76;17.99;98626.31;9929823;29;20840;-80
2022/04/29 14:25:16;;;;;;;4.60;2.63;;;;;;;23.63;18.41;98624.50;9957197;29;20046;-83
2022/04/29 14:30:37;;;;;;;5.53;3.40;;;;;;;23.37;18.51;98613.00;9956493;29;20059;-82
2022/04/29 14:35:58;;;;;;;5.93;2.88;;;;;;;22.81;18.94;98615.47;9956580;29;20053;-84
2022/04/29 14:41:20;;;;;;;8.10;3.08;;;;;;;22.72;19.67;98611.63;9944104;29;20517;-80
2022/04/29 14:46:40;;;;;;;3.95;2.80;;;;;;;22.46;20.09;98605.03;9956564;29;20057;-84
2022/04/29 14:52:02;;;;;;;5.93;2.63;;;;;;;22.34;20.33;98604.63;9956624;29;20049;-85
2022/04/29 14:57:24;;;;;;;6.85;3.00;;;;;;;22.08;20.40;98596.63;9956191;29;20047;-82
2022/04/29 15:02:50;;;;;;;6.50;3.00;;;;;;;22.32;20.71;98593.91;9944929;29;20061;-81
2022/04/29 15:08:11;;;;;;;7.07;3.08;;;;;;;22.40;20.34;98594.19;9955722;29;20061;-84
2022/04/29 15:19:13;;;;;;;7.28;2.88;;;;;;;22.30;20.50;98588.16;9954935;29;20058;-84
2022/04/29 15:24:33;;;;;;;4.88;3.13;;;;;;;22.06;20.66;98584.44;9962915;29;20057;-83
2022/04/29 15:29:54;;;;;;;8.07;3.05;;;;;;;21.86;20.70;98582.31;9962573;29;20066;-85
2022/04/29 15:35:15;;;;;;;5.00;3.05;;;;;;;21.61;21.03;98574.28;9962459;29;20095;-84
2022/04/29 15:40:36;;;;;;;5.05;3.30;;;;;;;21.22;21.01;98581.28;9988628;29;20241;-86
2022/04/29 15:45:57;;;;;;;4.30;2.63;;;;;;;20.94;21.27;98580.19;9949747;29;20058;-85
2022/04/29 15:51:17;;;;;;;6.03;2.42;;;;;;;20.92;21.32;98571.59;9962003;29;20406;-88
2022/04/29 15:56:40;;;;;;;7.47;2.60;;;;;;;20.74;21.37;98580.09;9962550;29;20070;-84
2022/04/29 16:02:02;;;;;;;4.63;2.40;;;;;;;20.77;21.04;98558.97;9949209;29;20053;-82
2022/04/29 16:07:23;;;;;;;8.35;2.90;;;;;;;20.68;21.30;98562.84;9969473;29;20058;-88
2022/04/29 16:12:44;;;;;;;5.55;2.70;;;;;;;20.46;21.54;98560.56;9970033;29;20062;-84
2022/04/29 16:29:25;;;;;;;5.03;3.03;;;;;;;19.81;22.61;98554.19;9962883;29;20066;-87
2022/04/29 16:34:45;;;;;;;5.60;2.78;;;;;;;19.67;22.80;98546.50;9960715;29;20046;-83
2022/04/29 16:40:07;;;;;;;6.97;2.58;;;;;;;19.66;23.10;98549.97;9948772;29;20528;-80
2022/04/29 16:45:28;;;;;;;5.97;2.70;;;;;;;19.69;22.92;98548.72;9960111;29;20055;-83
2022/04/29 16:50:55;;;;;;;4.90;2.50;;;;;;;19.63;22.79;98546.31;9972830;29;20053;-86
2022/04/29 16:56:16;;;;;;;3.17;1.50;;;;;;;19.48;22.78;98547.03;9952420;29;20069;-86
2022/04/29 17:01:36;;;;;;;7.15;1.83;;;;;;;19.28;22.88;98546.09;9970621;29;20046;-87
2022/04/29 17:06:58;;;;;;;2.38;1.40;;;;;;;19.17;22.85;98550.56;9997170;29;20046;-87
2022/04/29 17:12:19;;;;;;;3.88;1.60;;;;;;;18.94;23.07;98545.25;10022757;29;20042;-87
2022/04/29 17:17:39;;;;;;;3.60;1.70;;;;;;;18.75;23.26;98544.38;10009603;29;20405;-87
2022/04/29 17:23:01;;;;;;;7.07;1.55;;;;;;;18.64;23.68;98539.56;9996575;29;20493;-87
2022/04/29 17:28:22;;;;;;;5.68;1.67;;;;;;;18.48;23.78;98544.41;10009132;29;20095;-85
2022/04/29 17:33:43;;;;;;;7.70;2.00;;;;;;;18.34;23.98;98546.56;9996045;29;20473;-84
2022/04/29 17:39:03;;;;;;;5.57;1.90;;;;;;;18.16;24.55;98552.03;10020686;29;20454;-86
2022/04/29 17:44:24;;;;;;;6.97;1.92;;;;;;;18.05;24.48;98547.19;10008450;29;20049;-87
2022/04/29 17:50:19;;;;;;;6.45;2.25;;;;;;;17.74;24.85;98545.63;10021148;29;20106;-86
2022/04/29 17:55:40;;;;;;;4.70;2.45;;;;;;;17.58;25.16;98539.84;10009996;29;20405;-85
2022/04/29 18:01:01;;;;;;;7.80;2.50;;;;;;;17.45;25.63;98549.75;9995389;29;20050;-83
2022/04/29 18:06:22;;;;;;;6.78;3.28;;;;;;;17.30;25.72;98547.53;10007997;29;20073;-87
2022/04/29 18:11:43;;;;;;;6.93;2.58;;;;;;;17.12;26.20;98536.00;10020717;29;20111;-84
2022/04/29 18:17:04;;;;;;;6.40;3.08;;;;;;;16.90;26.67;98539.69;9994726;29;20497;-87
2022/04/29 18:22:26;;;;;;;5.80;3.10;;;;;;;16.75;27.08;98541.72;10020203;29;20422;-86
2022/04/29 18:27:47;;;;;;;7.78;2.70;;;;;;;16.69;27.32;98538.53;10007487;29;20045;-86
2022/04/29 18:33:08;;;;;;;6.05;3.35;;;;;;;16.65;27.68;98546.75;9969746;29;20105;-87
2022/04/29 18:38:29;;;;;;;7.28;3.88;;;;;;;16.54;28.01;98547.53;9982305;29;20054;-88
2022/04/29 18:43:50;;;;;;;8.25;3.85;;;;;;;16.47;28.56;98546.44;9969348;29;20528;-87
2022/04/29 18:49:12;;;;;;;7.25;3.85;;;;;;;16.36;28.88;98544.41;9969378;29;20046;-85
2022/04/29 18:54:35;;;;;;;8.15;4.07;;;;;;;16.26;29.24;98553.00;9956431;29;20053;-86
2022/04/29 18:59:56;;;;;;;8.98;5.20;;;;;;;16.14;29.54;98552.31;9982168;29;20058;-86
2022/04/29 19:05:23;;;;;;;9.70;4.55;;;;;;;16.05;29.96;98558.06;9969382;29;20051;-88
2022/04/29 19:10:43;;;;;;;9.02;4.45;;;;;;;15.92;29.90;98559.41;9968872;29;20203;-85
2022/04/29 19:16:05;;;;;;;7.45;4.68;;;;;;;15.80;30.34;98569.97;9978591;29;20058;-85
2022/04/29 19:21:27;;;;;;;9.90;5.30;;;;;;;15.67;30.68;98563.59;9930929;29;20050;-86
2022/04/29 19:26:49;;;;;;;11.93;4.03;;;;;;;15.53;31.13;98559.88;9943431;29;20051;-85
2022/04/29 19:32:27;;;;;;;10.32;5.05;;;;;;;15.43;31.43;98556.44;10043195;24;20540;-84
2022/04/29 19:37:59;;;;;;;8.52;4.63;;;;;;;15.37;31.85;98558.91;10032433;24;20054;-83
2022/04/29 19:43:31;;;;;;;8.88;4.03;;;;;;;15.28;32.09;98549.22;10081313;24;20065;-83
2022/04/29 19:49:03;;;;;;;8.80;4.15;;;;;;;15.22;32.24;98539.69;10057563;24;20049;-81
2022/04/29 19:54:25;;;;;;;9.00;4.32;;;;;;;15.25;32.38;98546.88;10044226;29;20053;-80
2022/04/29 19:59:50;;;;;;;10.65;4.57;;;;;;;15.22;32.96;98542.50;10058709;29;20049;-81
2022/04/29 20:05:11;;;;;;;10.07;4.90;;;;;;;15.22;32.73;98545.31;10037784;29;20045;-80
2022/04/29 20:10:32;;;;;;;9.05;5.00;;;;;;;15.20;32.83;98545.19;10050610;29;20053;-80
2022/04/29 20:15:53;;;;;;;12.18;5.55;;;;;;;15.20;33.09;98543.09;10050322;29;20046;-79
2022/04/29 20:21:14;;;;;;;10.43;5.07;;;;;;;15.16;33.05;98540.78;10037644;29;20052;-79
2022/04/29 20:26:35;;;;;;;8.38;5.28;;;;;;;15.09;33.25;98541.75;10037569;29;20049;-80
2022/04/29 20:31:56;;;;;;;10.55;6.78;;;;;;;15.02;33.21;98541.97;10023492;29;20042;-80
2022/04/29 20:37:18;;;;;;;10.68;5.45;;;;;;;14.95;33.39;98538.03;10030340;29;20081;-80
2022/04/29 20:48:18;;;;;;;12.32;6.88;;;;;;;14.81;33.89;98543.50;10034997;29;20082;-80
2022/04/29 20:53:38;;;;;;;10.68;6.15;;;;;;;14.69;33.87;98539.19;10016671;29;20045;-78
2022/04/29 20:58:59;;;;;;;14.90;6.95;;;;;;;14.52;34.42;98543.03;10020317;29;20041;-80
2022/04/29 21:04:20;;;;;;;12.88;7.68;;;;;;;14.38;34.58;98531.59;10036591;29;20069;-81
2022/04/29 21:09:41;;;;;;;12.57;7.28;;;;;;;14.23;34.85;98526.38;10035856;29;20038;-81
2022/04/29 21:15:03;;;;;;;11.05;5.47;;;;;;;14.12;35.05;98530.56;10024520;29;20050;-81
2022/04/29 21:20:24;;;;;;;12.63;7.85;;;;;;;14.04;35.22;98538.47;10016958;29;20049;-81
2022/04/29 21:25:45;;;;;;;11.48;6.53;;;;;;;13.87;35.49;98539.44;10029584;29;20045;-81
2022/04/29 21:31:06;;;;;;;11.63;6.07;;;;;;;13.72;36.02;98540.56;10040476;29;20068;-81
2022/04/29 21:36:27;;;;;;;11.63;6.05;;;;;;;13.69;36.11;98552.22;10013209;29;20054;-81
2022/04/29 21:41:48;;;;;;;8.55;5.90;;;;;;;13.59;36.22;98537.50;10037582;29;20481;-81
2022/04/29 21:47:08;;;;;;;11.45;7.28;;;;;;;13.44;36.67;98533.75;10046731;29;20082;-80
2022/04/29 21:52:29;;;;;;;11.63;7.53;;;;;;;13.33;36.87;98528.78;10035925;29;20533;-80
2022/04/29 21:57:49;;;;;;;13.55;7.68;;;;;;;13.28;36.94;98527.03;10048143;29;20046;-80
2022/04/29 22:03:10;;;;;;;12.38;8.10;;;;;;;13.25;37.16;98519.81;10035932;29;20054;-81
2022/04/29 22:08:32;;;;;;;12.32;7.82;;;;;;;13.25;37.27;98522.63;10061396;29;20042;-81
2022/04/29 22:13:53;;;;;;;13.43;7.55;;;;;;;13.23;37.39;98530.16;10048071;29;20046;-81
2022/04/29 22:19:14;;;;;;;14.07;7.93;;;;;;;13.16;37.59;98529.69;10048200;29;20041;-81
2022/04/29 22:24:35;;;;;;;10.98;7.72;;;;;;;13.14;37.61;98531.63;10060380;29;20041;-81
2022/04/29 22:29:56;;;;;;;14.02;7.95;;;;;;;13.08;37.56;98531.19;10035615;29;20080;-81
2022/04/29 22:35:17;;;;;;;10.77;8.13;;;;;;;13.07;38.04;98524.13;10035541;29;20065;-81
2022/04/29 22:40:38;;;;;;;11.45;8.20;;;;;;;13.03;38.32;98518.97;10047723;29;20045;-81
2022/04/29 22:45:59;;;;;;;13.07;8.10;;;;;;;13.01;38.24;98521.59;10047489;29;20053;-81
2022/04/29 22:51:20;;;;;;;12.20;8.27;;;;;;;12.90;38.65;98534.16;10047852;29;20042;-80
2022/04/29 22:56:41;;;;;;;15.02;9.18;;;;;;;12.81;38.79;98517.38;10061580;29;20050;-80
2022/04/29 23:02:03;;;;;;;15.88;11.25;;;;;;;12.72;39.15;98530.06;10046981;29;20049;-81
2022/04/29 23:07:25;;;;;;;13.43;10.85;;;;;;;12.59;39.20;98520.06;10047721;29;20042;-81
2022/04/29 23:12:47;;;;;;;10.73;8.40;;;;;;;12.46;39.66;98522.59;10060598;29;20046;-81
2022/04/29 23:24:11;;;;;;;12.52;9.32;;;;;;;12.48;39.89;98512.25;9860134;30;20055;-81
2022/04/29 23:29:31;;;;;;;13.05;8.82;;;;;;;12.48;39.91;98503.13;10032974;29;20066;-81
2022/04/29 23:34:52;;;;;;;14.02;9.68;;;;;;;12.44;40.45;98492.34;10037958;29;20050;-81
2022/04/29 23:40:16;;;;;;;16.65;10.70;;;;;;;12.40;40.46;98499.75;10054036;29;20049;-81
2022/04/29 23:45:37;;;;;;;15.75;9.88;;;;;;;12.30;40.61;98496.94;10054742;29;20488;-81
2022/04/29 23:50:58;;;;;;;13.38;9.85;;;;;;;12.23;40.82;98498.56;10041273;29;20066;-81
2022/04/29 23:56:19;;;;;;;14.82;9.70;;;;;;;12.21;40.78;98495.63;10053886;29;20057;-81
